sensor_id;sensor_type;location;lat;lon;timestamp;pressure;altitude;pressure_sealevel;temperature;humidity
16120;BME280;12670;53.502;10.252;2022-09-03T00:01:34;101449.78;;;17.27;58.91
16120;BME280;12670;53.502;10.252;2022-09-03T00:04:44;101443.06;;;17.20;58.78
16120;BME280;12670;53.502;10.252;2022-09-03T00:07:53;101440.00;;;16.96;59.30
16120;BME280;12670;53.502;10.252;2022-09-03T00:11:02;101432.19;;;17.08;59.42
16120;BME280;12670;53.502;10.252;2022-09-03T00:14:11;101440.19;;;17.23;58.74
16120;BME280;12670;53.502;10.252;2022-09-03T00:17:19;101445.25;;;17.14;58.89
16120;BME280;12670;53.502;10.252;2022-09-03T00:20:27;101439.47;;;16.90;59.05
16120;BME280;12670;53.502;10.252;2022-09-03T00:23:34;101443.09;;;17.04;58.97
16120;BME280;12670;53.502;10.252;2022-09-03T00:26:41;101445.16;;;17.15;58.33
16120;BME280;12670;53.502;10.252;2022-09-03T00:29:50;101438.81;;;17.16;58.57
16120;BME280;12670;53.502;10.252;2022-09-03T00:32:57;101446.72;;;17.19;57.37
16120;BME280;12670;53.502;10.252;2022-09-03T00:36:08;101446.34;;;17.25;57.68
16120;BME280;12670;53.502;10.252;2022-09-03T00:39:14;101445.66;;;17.22;57.79
16120;BME280;12670;53.502;10.252;2022-09-03T00:42:32;101448.94;;;17.11;57.76
16120;BME280;12670;53.502;10.252;2022-09-03T00:45:43;101441.91;;;16.78;59.03
16120;BME280;12670;53.502;10.252;2022-09-03T00:49:01;101441.09;;;17.08;58.21
16120;BME280;12670;53.502;10.252;2022-09-03T00:52:17;101431.25;;;16.93;58.89
16120;BME280;12670;53.502;10.252;2022-09-03T00:55:30;101436.00;;;17.03;58.59
16120;BME280;12670;53.502;10.252;2022-09-03T00:58:46;101436.97;;;16.87;59.54
16120;BME280;12670;53.502;10.252;2022-09-03T01:02:05;101432.03;;;16.79;59.22
16120;BME280;12670;53.502;10.252;2022-09-03T01:05:23;101444.13;;;16.86;59.04
16120;BME280;12670;53.502;10.252;2022-09-03T01:08:41;101438.63;;;16.73;59.09
16120;BME280;12670;53.502;10.252;2022-09-03T01:11:57;101440.50;;;16.87;59.56
16120;BME280;12670;53.502;10.252;2022-09-03T01:15:07;101445.53;;;16.77;59.00
16120;BME280;12670;53.502;10.252;2022-09-03T01:18:21;101440.84;;;16.81;59.41
16120;BME280;12670;53.502;10.252;2022-09-03T01:21:50;101440.94;;;16.95;59.72
16120;BME280;12670;53.502;10.252;2022-09-03T01:25:11;101433.06;;;16.92;59.92
16120;BME280;12670;53.502;10.252;2022-09-03T01:28:27;101440.44;;;16.89;60.29
16120;BME280;12670;53.502;10.252;2022-09-03T01:31:36;101434.47;;;16.84;60.23
16120;BME280;12670;53.502;10.252;2022-09-03T01:34:50;101430.03;;;16.83;60.35
16120;BME280;12670;53.502;10.252;2022-09-03T01:38:06;101434.53;;;16.82;60.06
16120;BME280;12670;53.502;10.252;2022-09-03T01:41:16;101436.31;;;16.50;61.19
16120;BME280;12670;53.502;10.252;2022-09-03T01:44:48;101431.00;;;16.82;59.79
16120;BME280;12670;53.502;10.252;2022-09-03T01:48:17;101430.63;;;16.88;59.14
16120;BME280;12670;53.502;10.252;2022-09-03T01:51:24;101439.13;;;16.80;59.95
16120;BME280;12670;53.502;10.252;2022-09-03T01:54:40;101436.31;;;16.50;60.59
16120;BME280;12670;53.502;10.252;2022-09-03T01:57:48;101428.50;;;16.78;59.78
16120;BME280;12670;53.502;10.252;2022-09-03T02:01:02;101419.66;;;16.76;59.97
16120;BME280;12670;53.502;10.252;2022-09-03T02:04:15;101417.94;;;16.75;59.95
16120;BME280;12670;53.502;10.252;2022-09-03T02:07:21;101422.69;;;16.86;59.13
16120;BME280;12670;53.502;10.252;2022-09-03T02:10:27;101426.50;;;16.98;59.13
16120;BME280;12670;53.502;10.252;2022-09-03T02:13:35;101435.28;;;16.68;59.96
16120;BME280;12670;53.502;10.252;2022-09-03T02:16:40;101427.19;;;16.86;59.61
16120;BME280;12670;53.502;10.252;2022-09-03T02:19:44;101433.78;;;16.96;59.29
16120;BME280;12670;53.502;10.252;2022-09-03T02:22:47;101420.06;;;16.69;59.22
16120;BME280;12670;53.502;10.252;2022-09-03T02:25:54;101432.22;;;16.76;59.32
16120;BME280;12670;53.502;10.252;2022-09-03T02:28:58;101429.75;;;16.56;59.83
16120;BME280;12670;53.502;10.252;2022-09-03T02:32:04;101425.22;;;16.73;59.61
16120;BME280;12670;53.502;10.252;2022-09-03T02:35:07;101422.34;;;16.76;59.56
16120;BME280;12670;53.502;10.252;2022-09-03T02:38:11;101425.31;;;16.72;59.75
16120;BME280;12670;53.502;10.252;2022-09-03T02:41:14;101424.63;;;16.84;59.14
16120;BME280;12670;53.502;10.252;2022-09-03T02:44:21;101430.47;;;16.75;59.47
16120;BME280;12670;53.502;10.252;2022-09-03T02:47:30;101423.97;;;16.63;59.99
16120;BME280;12670;53.502;10.252;2022-09-03T02:50:39;101429.06;;;16.52;60.09
16120;BME280;12670;53.502;10.252;2022-09-03T02:53:42;101427.50;;;16.32;60.02
16120;BME280;12670;53.502;10.252;2022-09-03T02:56:45;101436.84;;;16.57;60.30
16120;BME280;12670;53.502;10.252;2022-09-03T02:59:48;101423.00;;;16.64;59.90
16120;BME280;12670;53.502;10.252;2022-09-03T03:02:53;101433.06;;;16.61;60.67
16120;BME280;12670;53.502;10.252;2022-09-03T03:05:59;101436.81;;;16.41;61.18
16120;BME280;12670;53.502;10.252;2022-09-03T03:09:02;101427.31;;;16.35;60.38
16120;BME280;12670;53.502;10.252;2022-09-03T03:12:06;101423.03;;;16.48;60.30
16120;BME280;12670;53.502;10.252;2022-09-03T03:15:10;101428.63;;;16.44;60.46
16120;BME280;12670;53.502;10.252;2022-09-03T03:18:14;101423.94;;;16.32;61.35
16120;BME280;12670;53.502;10.252;2022-09-03T03:21:18;101426.28;;;16.38;61.34
16120;BME280;12670;53.502;10.252;2022-09-03T03:24:21;101425.69;;;16.33;61.27
16120;BME280;12670;53.502;10.252;2022-09-03T03:27:23;101421.28;;;16.32;61.12
16120;BME280;12670;53.502;10.252;2022-09-03T03:30:26;101422.28;;;16.29;61.68
16120;BME280;12670;53.502;10.252;2022-09-03T03:33:30;101426.41;;;16.03;61.06
16120;BME280;12670;53.502;10.252;2022-09-03T03:36:34;101429.31;;;15.98;61.74
16120;BME280;12670;53.502;10.252;2022-09-03T03:39:37;101431.22;;;16.12;61.69
16120;BME280;12670;53.502;10.252;2022-09-03T03:42:40;101425.72;;;16.15;61.67
16120;BME280;12670;53.502;10.252;2022-09-03T03:45:42;101431.75;;;16.03;61.96
16120;BME280;12670;53.502;10.252;2022-09-03T03:48:47;101436.34;;;15.84;62.15
16120;BME280;12670;53.502;10.252;2022-09-03T03:51:50;101436.34;;;15.84;61.96
16120;BME280;12670;53.502;10.252;2022-09-03T03:54:53;101439.63;;;15.89;62.22
16120;BME280;12670;53.502;10.252;2022-09-03T03:57:57;101438.72;;;15.72;61.59
16120;BME280;12670;53.502;10.252;2022-09-03T04:01:04;101441.53;;;15.87;61.57
16120;BME280;12670;53.502;10.252;2022-09-03T04:04:08;101429.44;;;15.80;61.80
16120;BME280;12670;53.502;10.252;2022-09-03T04:07:10;101433.25;;;15.57;62.22
16120;BME280;12670;53.502;10.252;2022-09-03T04:10:13;101432.50;;;15.72;61.45
16120;BME280;12670;53.502;10.252;2022-09-03T04:13:16;101447.19;;;15.98;61.01
16120;BME280;12670;53.502;10.252;2022-09-03T04:16:20;101442.94;;;15.94;60.74
16120;BME280;12670;53.502;10.252;2022-09-03T04:19:25;101451.44;;;16.02;60.61
16120;BME280;12670;53.502;10.252;2022-09-03T04:22:28;101446.31;;;15.97;60.84
16120;BME280;12670;53.502;10.252;2022-09-03T04:25:31;101449.53;;;16.04;61.13
16120;BME280;12670;53.502;10.252;2022-09-03T04:28:34;101440.53;;;16.05;60.38
16120;BME280;12670;53.502;10.252;2022-09-03T04:31:38;101445.75;;;16.08;60.33
16120;BME280;12670;53.502;10.252;2022-09-03T04:35:02;101440.72;;;16.02;60.35
16120;BME280;12670;53.502;10.252;2022-09-03T04:38:05;101444.28;;;15.85;61.45
16120;BME280;12670;53.502;10.252;2022-09-03T04:41:09;101440.97;;;15.97;60.68
16120;BME280;12670;53.502;10.252;2022-09-03T04:44:12;101443.66;;;15.97;61.38
16120;BME280;12670;53.502;10.252;2022-09-03T04:47:15;101441.81;;;15.98;61.28
16120;BME280;12670;53.502;10.252;2022-09-03T04:50:18;101439.47;;;15.92;60.74
16120;BME280;12670;53.502;10.252;2022-09-03T04:53:22;101444.13;;;15.88;61.40
16120;BME280;12670;53.502;10.252;2022-09-03T04:56:26;101450.97;;;15.77;61.11
16120;BME280;12670;53.502;10.252;2022-09-03T04:59:29;101444.72;;;15.78;61.58
16120;BME280;12670;53.502;10.252;2022-09-03T05:02:31;101444.53;;;15.63;61.22
16120;BME280;12670;53.502;10.252;2022-09-03T05:05:35;101442.91;;;15.78;62.05
16120;BME280;12670;53.502;10.252;2022-09-03T05:08:38;101450.09;;;15.41;62.24
16120;BME280;12670;53.502;10.252;2022-09-03T05:11:40;101445.16;;;15.68;62.25
16120;BME280;12670;53.502;10.252;2022-09-03T05:14:43;101446.22;;;15.66;62.09
16120;BME280;12670;53.502;10.252;2022-09-03T05:17:46;101446.56;;;15.76;61.59
16120;BME280;12670;53.502;10.252;2022-09-03T05:20:57;101449.41;;;15.90;61.18
16120;BME280;12670;53.502;10.252;2022-09-03T05:24:00;101444.34;;;16.01;61.18
16120;BME280;12670;53.502;10.252;2022-09-03T05:27:03;101441.53;;;15.69;61.99
16120;BME280;12670;53.502;10.252;2022-09-03T05:30:06;101441.63;;;15.68;61.57
16120;BME280;12670;53.502;10.252;2022-09-03T05:33:09;101436.94;;;15.89;61.62
16120;BME280;12670;53.502;10.252;2022-09-03T05:36:15;101438.72;;;16.06;61.31
16120;BME280;12670;53.502;10.252;2022-09-03T05:39:18;101441.94;;;16.12;60.98
16120;BME280;12670;53.502;10.252;2022-09-03T05:42:21;101444.06;;;15.90;61.15
16120;BME280;12670;53.502;10.252;2022-09-03T05:45:23;101445.47;;;15.80;62.44
16120;BME280;12670;53.502;10.252;2022-09-03T05:48:26;101449.84;;;15.98;62.11
16120;BME280;12670;53.502;10.252;2022-09-03T05:51:31;101438.06;;;15.85;62.01
16120;BME280;12670;53.502;10.252;2022-09-03T05:54:34;101447.94;;;16.00;61.47
16120;BME280;12670;53.502;10.252;2022-09-03T05:57:37;101447.16;;;16.15;61.13
16120;BME280;12670;53.502;10.252;2022-09-03T06:00:41;101444.06;;;15.90;61.52
16120;BME280;12670;53.502;10.252;2022-09-03T06:03:45;101444.28;;;15.85;61.35
16120;BME280;12670;53.502;10.252;2022-09-03T06:06:50;101451.13;;;15.91;61.86
16120;BME280;12670;53.502;10.252;2022-09-03T06:09:52;101445.25;;;15.67;63.41
16120;BME280;12670;53.502;10.252;2022-09-03T06:12:55;101450.03;;;15.95;62.26
16120;BME280;12670;53.502;10.252;2022-09-03T06:16:05;101442.84;;;16.29;61.43
16120;BME280;12670;53.502;10.252;2022-09-03T06:19:09;101453.41;;;16.32;60.52
16120;BME280;12670;53.502;10.252;2022-09-03T06:22:14;101450.25;;;16.23;60.97
16120;BME280;12670;53.502;10.252;2022-09-03T06:25:17;101445.38;;;16.32;60.98
16120;BME280;12670;53.502;10.252;2022-09-03T06:28:21;101458.75;;;16.32;61.47
16120;BME280;12670;53.502;10.252;2022-09-03T06:31:27;101447.09;;;16.33;61.06
16120;BME280;12670;53.502;10.252;2022-09-03T06:34:29;101453.56;;;16.29;61.67
16120;BME280;12670;53.502;10.252;2022-09-03T06:37:37;101450.16;;;16.58;61.39
16120;BME280;12670;53.502;10.252;2022-09-03T06:40:40;101452.50;;;16.48;61.74
16120;BME280;12670;53.502;10.252;2022-09-03T06:43:43;101457.06;;;16.62;61.17
16120;BME280;12670;53.502;10.252;2022-09-03T06:46:46;101464.16;;;16.63;60.11
16120;BME280;12670;53.502;10.252;2022-09-03T06:49:49;101454.25;;;16.81;59.13
16120;BME280;12670;53.502;10.252;2022-09-03T06:52:53;101462.09;;;17.00;60.56
16120;BME280;12670;53.502;10.252;2022-09-03T06:55:57;101463.31;;;16.94;58.66
16120;BME280;12670;53.502;10.252;2022-09-03T06:59:03;101464.28;;;17.09;60.11
16120;BME280;12670;53.502;10.252;2022-09-03T07:02:06;101453.97;;;17.17;59.46
16120;BME280;12670;53.502;10.252;2022-09-03T07:05:09;101461.72;;;17.38;58.16
16120;BME280;12670;53.502;10.252;2022-09-03T07:08:13;101457.91;;;17.42;57.83
16120;BME280;12670;53.502;10.252;2022-09-03T07:11:17;101456.44;;;17.66;57.50
16120;BME280;12670;53.502;10.252;2022-09-03T07:14:22;101463.63;;;17.96;57.85
16120;BME280;12670;53.502;10.252;2022-09-03T07:17:24;101471.03;;;18.06;56.75
16120;BME280;12670;53.502;10.252;2022-09-03T07:20:27;101462.66;;;18.11;56.45
16120;BME280;12670;53.502;10.252;2022-09-03T07:23:32;101471.41;;;18.29;55.62
16120;BME280;12670;53.502;10.252;2022-09-03T07:26:36;101470.47;;;18.30;56.01
16120;BME280;12670;53.502;10.252;2022-09-03T07:29:39;101465.56;;;18.36;55.50
16120;BME280;12670;53.502;10.252;2022-09-03T07:32:42;101459.19;;;18.66;56.05
16120;BME280;12670;53.502;10.252;2022-09-03T07:35:45;101455.66;;;18.80;54.75
16120;BME280;12670;53.502;10.252;2022-09-03T07:38:49;101455.75;;;18.78;53.12
16120;BME280;12670;53.502;10.252;2022-09-03T07:41:52;101465.72;;;18.90;54.74
16120;BME280;12670;53.502;10.252;2022-09-03T07:44:55;101462.81;;;18.94;53.79
16120;BME280;12670;53.502;10.252;2022-09-03T07:47:58;101461.84;;;19.22;54.88
16120;BME280;12670;53.502;10.252;2022-09-03T07:51:01;101469.84;;;19.23;53.41
16120;BME280;12670;53.502;10.252;2022-09-03T07:54:07;101459.69;;;19.54;53.14
16120;BME280;12670;53.502;10.252;2022-09-03T07:57:11;101455.78;;;19.72;53.29
16120;BME280;12670;53.502;10.252;2022-09-03T08:00:14;101465.47;;;19.87;52.43
16120;BME280;12670;53.502;10.252;2022-09-03T08:03:18;101460.31;;;19.84;51.15
16120;BME280;12670;53.502;10.252;2022-09-03T08:06:23;101454.38;;;19.92;50.33
16120;BME280;12670;53.502;10.252;2022-09-03T08:09:27;101449.97;;;20.29;50.37
16120;BME280;12670;53.502;10.252;2022-09-03T08:12:30;101453.94;;;20.62;50.59
16120;BME280;12670;53.502;10.252;2022-09-03T08:15:33;101461.97;;;20.74;51.20
16120;BME280;12670;53.502;10.252;2022-09-03T08:18:37;101453.19;;;20.60;49.72
16120;BME280;12670;53.502;10.252;2022-09-03T08:21:40;101452.91;;;20.88;49.18
16120;BME280;12670;53.502;10.252;2022-09-03T08:24:44;101454.56;;;21.02;48.56
16120;BME280;12670;53.502;10.252;2022-09-03T08:27:47;101454.66;;;21.37;48.28
16120;BME280;12670;53.502;10.252;2022-09-03T08:30:49;101459.19;;;21.72;45.45
16120;BME280;12670;53.502;10.252;2022-09-03T08:33:53;101452.53;;;21.65;45.13
16120;BME280;12670;53.502;10.252;2022-09-03T08:36:56;101455.19;;;22.00;46.04
16120;BME280;12670;53.502;10.252;2022-09-03T08:40:03;101456.22;;;22.32;44.65
16120;BME280;12670;53.502;10.252;2022-09-03T08:43:12;101449.97;;;22.32;44.45
16120;BME280;12670;53.502;10.252;2022-09-03T08:46:18;101455.84;;;22.71;43.94
16120;BME280;12670;53.502;10.252;2022-09-03T08:49:26;101444.47;;;23.10;43.67
16120;BME280;12670;53.502;10.252;2022-09-03T08:52:32;101451.63;;;23.32;42.98
16120;BME280;12670;53.502;10.252;2022-09-03T08:55:42;101453.53;;;23.21;42.90
16120;BME280;12670;53.502;10.252;2022-09-03T08:58:48;101444.53;;;23.52;41.99
16120;BME280;12670;53.502;10.252;2022-09-03T09:01:55;101451.53;;;23.87;40.92
16120;BME280;12670;53.502;10.252;2022-09-03T09:05:02;101448.00;;;23.96;41.38
16120;BME280;12670;53.502;10.252;2022-09-03T09:08:19;101449.59;;;24.29;40.02
16120;BME280;12670;53.502;10.252;2022-09-03T09:11:35;101443.34;;;24.59;39.82
16120;BME280;12670;53.502;10.252;2022-09-03T09:14:45;101443.47;;;24.67;39.62
16120;BME280;12670;53.502;10.252;2022-09-03T09:18:02;101433.19;;;24.61;39.69
16120;BME280;12670;53.502;10.252;2022-09-03T09:21:11;101439.75;;;24.59;38.98
16120;BME280;12670;53.502;10.252;2022-09-03T09:24:23;101439.91;;;24.67;38.09
16120;BME280;12670;53.502;10.252;2022-09-03T09:27:28;101436.31;;;25.07;37.74
16120;BME280;12670;53.502;10.252;2022-09-03T09:30:31;101436.75;;;25.41;36.03
16120;BME280;12670;53.502;10.252;2022-09-03T09:33:34;101441.03;;;25.63;35.94
16120;BME280;12670;53.502;10.252;2022-09-03T09:36:41;101432.78;;;25.74;34.49
16120;BME280;12670;53.502;10.252;2022-09-03T09:39:54;101432.72;;;25.84;36.21
16120;BME280;12670;53.502;10.252;2022-09-03T09:43:07;101432.44;;;25.87;36.10
16120;BME280;12670;53.502;10.252;2022-09-03T09:46:13;101426.84;;;26.35;34.66
16120;BME280;12670;53.502;10.252;2022-09-03T09:49:29;101423.63;;;26.49;34.79
16120;BME280;12670;53.502;10.252;2022-09-03T09:52:32;101416.44;;;26.86;33.48
16120;BME280;12670;53.502;10.252;2022-09-03T09:55:35;101416.56;;;27.02;33.11
16120;BME280;12670;53.502;10.252;2022-09-03T09:59:01;101416.06;;;27.52;31.75
16120;BME280;12670;53.502;10.252;2022-09-03T10:02:09;101413.00;;;27.01;31.32
16120;BME280;12670;53.502;10.252;2022-09-03T10:05:20;101413.94;;;26.47;33.75
16120;BME280;12670;53.502;10.252;2022-09-03T10:08:24;101420.88;;;25.65;34.83
16120;BME280;12670;53.502;10.252;2022-09-03T10:11:27;101417.50;;;26.10;33.74
16120;BME280;12670;53.502;10.252;2022-09-03T10:14:36;101414.19;;;26.53;32.66
16120;BME280;12670;53.502;10.252;2022-09-03T10:17:46;101410.06;;;26.67;31.81
16120;BME280;12670;53.502;10.252;2022-09-03T10:20:57;101408.81;;;27.43;31.29
16120;BME280;12670;53.502;10.252;2022-09-03T10:24:18;101405.94;;;27.88;31.02
16120;BME280;12670;53.502;10.252;2022-09-03T10:27:25;101417.16;;;28.11;30.04
16120;BME280;12670;53.502;10.252;2022-09-03T10:30:41;101404.53;;;28.36;29.18
16120;BME280;12670;53.502;10.252;2022-09-03T10:33:51;101404.59;;;28.18;30.08
16120;BME280;12670;53.502;10.252;2022-09-03T10:37:01;101391.78;;;28.45;29.29
16120;BME280;12670;53.502;10.252;2022-09-03T10:40:18;101398.63;;;28.14;29.16
16120;BME280;12670;53.502;10.252;2022-09-03T10:43:44;101387.53;;;28.16;29.68
16120;BME280;12670;53.502;10.252;2022-09-03T10:47:06;101386.88;;;28.64;27.92
16120;BME280;12670;53.502;10.252;2022-09-03T10:50:16;101390.81;;;28.70;29.04
16120;BME280;12670;53.502;10.252;2022-09-03T10:53:38;101384.38;;;28.79;28.65
16120;BME280;12670;53.502;10.252;2022-09-03T10:56:53;101380.63;;;28.80;28.69
16120;BME280;12670;53.502;10.252;2022-09-03T11:00:03;101385.28;;;29.12;27.95
16120;BME280;12670;53.502;10.252;2022-09-03T11:03:31;101368.81;;;28.21;28.15
16120;BME280;12670;53.502;10.252;2022-09-03T11:06:46;101371.97;;;27.56;29.23
16120;BME280;12670;53.502;10.252;2022-09-03T11:09:54;101375.44;;;27.41;28.87
16120;BME280;12670;53.502;10.252;2022-09-03T11:13:03;101370.63;;;26.53;30.68
16120;BME280;12670;53.502;10.252;2022-09-03T11:16:12;101367.63;;;27.46;29.42
16120;BME280;12670;53.502;10.252;2022-09-03T11:19:21;101363.81;;;28.51;26.39
16120;BME280;12670;53.502;10.252;2022-09-03T11:22:27;101351.81;;;27.49;27.05
16120;BME280;12670;53.502;10.252;2022-09-03T11:25:34;101360.34;;;27.54;26.29
16120;BME280;12670;53.502;10.252;2022-09-03T11:28:42;101360.72;;;28.46;26.88
16120;BME280;12670;53.502;10.252;2022-09-03T11:31:56;101362.75;;;29.43;24.88
16120;BME280;12670;53.502;10.252;2022-09-03T11:35:12;101362.13;;;30.21;23.96
16120;BME280;12670;53.502;10.252;2022-09-03T11:38:20;101360.09;;;30.15;23.56
16120;BME280;12670;53.502;10.252;2022-09-03T11:41:26;101347.06;;;30.48;23.17
16120;BME280;12670;53.502;10.252;2022-09-03T11:44:35;101363.00;;;30.05;23.22
16120;BME280;12670;53.502;10.252;2022-09-03T11:47:46;101337.97;;;29.69;24.14
16120;BME280;12670;53.502;10.252;2022-09-03T11:50:54;101333.16;;;30.58;23.15
16120;BME280;12670;53.502;10.252;2022-09-03T11:53:59;101347.22;;;31.31;23.08
16120;BME280;12670;53.502;10.252;2022-09-03T11:57:05;101341.47;;;30.95;23.12
16120;BME280;12670;53.502;10.252;2022-09-03T12:00:13;101345.38;;;31.24;22.97
16120;BME280;12670;53.502;10.252;2022-09-03T12:03:23;101341.75;;;30.07;23.10
16120;BME280;12670;53.502;10.252;2022-09-03T12:06:52;101336.22;;;28.70;24.55
16120;BME280;12670;53.502;10.252;2022-09-03T12:10:16;101339.00;;;29.60;23.52
16120;BME280;12670;53.502;10.252;2022-09-03T12:13:41;101324.47;;;31.23;23.15
16120;BME280;12670;53.502;10.252;2022-09-03T12:17:05;101319.09;;;30.92;22.64
16120;BME280;12670;53.502;10.252;2022-09-03T12:20:12;101340.91;;;31.23;22.65
16120;BME280;12670;53.502;10.252;2022-09-03T12:23:27;101335.53;;;30.92;22.05
16120;BME280;12670;53.502;10.252;2022-09-03T12:26:38;101345.16;;;31.11;22.09
16120;BME280;12670;53.502;10.252;2022-09-03T12:29:49;101332.50;;;30.87;22.78
16120;BME280;12670;53.502;10.252;2022-09-03T12:33:05;101325.28;;;28.78;23.60
16120;BME280;12670;53.502;10.252;2022-09-03T12:36:08;101318.13;;;30.53;23.42
16120;BME280;12670;53.502;10.252;2022-09-03T12:39:15;101321.16;;;30.90;23.17
16120;BME280;12670;53.502;10.252;2022-09-03T12:42:22;101308.56;;;31.03;22.20
16120;BME280;12670;53.502;10.252;2022-09-03T12:45:26;101321.97;;;30.44;23.52
16120;BME280;12670;53.502;10.252;2022-09-03T12:48:53;101318.69;;;30.49;23.43
16120;BME280;12670;53.502;10.252;2022-09-03T12:52:19;101299.94;;;31.29;22.46
16120;BME280;12670;53.502;10.252;2022-09-03T12:55:32;101305.28;;;31.23;22.76
16120;BME280;12670;53.502;10.252;2022-09-03T12:58:41;101303.81;;;31.35;21.93
16120;BME280;12670;53.502;10.252;2022-09-03T13:01:51;101294.13;;;32.06;23.01
16120;BME280;12670;53.502;10.252;2022-09-03T13:04:56;101294.75;;;30.74;23.13
16120;BME280;12670;53.502;10.252;2022-09-03T13:08:00;101293.31;;;30.24;23.30
16120;BME280;12670;53.502;10.252;2022-09-03T13:11:07;101290.84;;;30.60;23.10
16120;BME280;12670;53.502;10.252;2022-09-03T13:14:11;101287.66;;;31.25;22.64
16120;BME280;12670;53.502;10.252;2022-09-03T13:21:05;101279.91;;;30.68;23.44
16120;BME280;12670;53.502;10.252;2022-09-03T13:24:27;101289.00;;;30.61;23.10
16120;BME280;12670;53.502;10.252;2022-09-03T13:27:43;101285.28;;;30.99;22.32
16120;BME280;12670;53.502;10.252;2022-09-03T13:30:54;101278.09;;;30.98;22.89
16120;BME280;12670;53.502;10.252;2022-09-03T13:34:03;101272.31;;;30.93;22.32
16120;BME280;12670;53.502;10.252;2022-09-03T13:37:14;101282.97;;;31.49;22.64
16120;BME280;12670;53.502;10.252;2022-09-03T13:40:24;101294.38;;;30.77;23.13
16120;BME280;12670;53.502;10.252;2022-09-03T13:43:36;101289.91;;;30.22;23.06
16120;BME280;12670;53.502;10.252;2022-09-03T13:46:45;101280.72;;;29.67;23.02
16120;BME280;12670;53.502;10.252;2022-09-03T13:49:52;101282.81;;;28.09;24.83
16120;BME280;12670;53.502;10.252;2022-09-03T13:53:17;101284.19;;;29.29;24.00
16120;BME280;12670;53.502;10.252;2022-09-03T13:56:31;101282.16;;;28.98;24.20
16120;BME280;12670;53.502;10.252;2022-09-03T13:59:44;101279.06;;;29.34;24.01
16120;BME280;12670;53.502;10.252;2022-09-03T14:02:53;101282.16;;;29.06;23.75
16120;BME280;12670;53.502;10.252;2022-09-03T14:06:05;101293.44;;;28.28;24.81
16120;BME280;12670;53.502;10.252;2022-09-03T14:09:14;101282.47;;;27.70;24.92
16120;BME280;12670;53.502;10.252;2022-09-03T14:12:34;101285.34;;;26.80;25.95
16120;BME280;12670;53.502;10.252;2022-09-03T14:15:47;101273.94;;;27.03;26.59
16120;BME280;12670;53.502;10.252;2022-09-03T14:18:55;101273.69;;;27.32;26.77
16120;BME280;12670;53.502;10.252;2022-09-03T14:22:05;101268.16;;;26.80;26.34
16120;BME280;12670;53.502;10.252;2022-09-03T14:25:14;101258.81;;;25.64;27.81
16120;BME280;12670;53.502;10.252;2022-09-03T14:28:27;101268.88;;;25.91;27.74
16120;BME280;12670;53.502;10.252;2022-09-03T14:31:57;101260.16;;;25.97;27.76
16120;BME280;12670;53.502;10.252;2022-09-03T14:35:29;101243.63;;;25.81;28.62
16120;BME280;12670;53.502;10.252;2022-09-03T14:38:56;101270.13;;;25.60;28.64
16120;BME280;12670;53.502;10.252;2022-09-03T14:42:22;101268.63;;;25.38;28.44
16120;BME280;12670;53.502;10.252;2022-09-03T14:45:41;101257.25;;;25.62;28.99
16120;BME280;12670;53.502;10.252;2022-09-03T14:49:13;101262.91;;;25.50;28.59
16120;BME280;12670;53.502;10.252;2022-09-03T14:52:37;101267.34;;;25.42;28.49
16120;BME280;12670;53.502;10.252;2022-09-03T14:55:56;101276.75;;;25.47;29.27
16120;BME280;12670;53.502;10.252;2022-09-03T14:59:14;101272.84;;;24.64;29.12
16120;BME280;12670;53.502;10.252;2022-09-03T15:02:37;101276.91;;;24.30;29.92
16120;BME280;12670;53.502;10.252;2022-09-03T15:09:22;101272.41;;;24.59;31.12
16120;BME280;12670;53.502;10.252;2022-09-03T15:12:33;101269.00;;;24.57;30.59
16120;BME280;12670;53.502;10.252;2022-09-03T15:15:50;101262.69;;;24.66;30.44
16120;BME280;12670;53.502;10.252;2022-09-03T15:19:12;101255.28;;;24.49;30.36
16120;BME280;12670;53.502;10.252;2022-09-03T15:22:27;101254.69;;;24.55;30.22
16120;BME280;12670;53.502;10.252;2022-09-03T15:25:46;101256.56;;;24.45;30.57
16120;BME280;12670;53.502;10.252;2022-09-03T15:29:03;101251.19;;;23.64;31.44
16120;BME280;12670;53.502;10.252;2022-09-03T15:32:19;101259.13;;;23.97;31.19
16120;BME280;12670;53.502;10.252;2022-09-03T15:35:37;101252.03;;;24.05;31.96
16120;BME280;12670;53.502;10.252;2022-09-03T15:38:48;101260.91;;;24.17;31.97
16120;BME280;12670;53.502;10.252;2022-09-03T15:41:55;101267.91;;;23.49;31.97
16120;BME280;12670;53.502;10.252;2022-09-03T15:45:05;101270.88;;;23.66;32.09
16120;BME280;12670;53.502;10.252;2022-09-03T15:48:17;101266.03;;;23.39;31.98
16120;BME280;12670;53.502;10.252;2022-09-03T15:51:25;101275.47;;;23.76;32.11
16120;BME280;12670;53.502;10.252;2022-09-03T15:54:36;101271.38;;;23.91;32.62
16120;BME280;12670;53.502;10.252;2022-09-03T15:57:48;101273.97;;;23.92;32.28
16120;BME280;12670;53.502;10.252;2022-09-03T16:00:57;101278.75;;;23.79;31.97
16120;BME280;12670;53.502;10.252;2022-09-03T16:04:26;101274.09;;;23.60;31.86
16120;BME280;12670;53.502;10.252;2022-09-03T16:07:46;101271.78;;;23.56;31.70
16120;BME280;12670;53.502;10.252;2022-09-03T16:10:57;101276.81;;;23.60;31.86
16120;BME280;12670;53.502;10.252;2022-09-03T16:14:07;101281.03;;;23.23;32.71
16120;BME280;12670;53.502;10.252;2022-09-03T16:17:19;101276.84;;;23.19;32.31
16120;BME280;12670;53.502;10.252;2022-09-03T16:20:29;101283.91;;;23.31;33.33
16120;BME280;12670;53.502;10.252;2022-09-03T16:23:40;101277.41;;;23.43;32.67